sensor_id;sensor_type;location;lat;lon;timestamp;P1;durP1;ratioP1;P2;durP2;ratioP2
6133;SDS011;3098;42.678;23.364;2022-09-09T00:02:15;17.05;;;10.18;;
6133;SDS011;3098;42.678;23.364;2022-09-09T00:04:46;14.70;;;9.50;;
6133;SDS011;3098;42.678;23.364;2022-09-09T00:07:28;20.23;;;10.02;;
6133;SDS011;3098;42.678;23.364;2022-09-09T00:10:11;11.93;;;8.70;;
6133;SDS011;3098;42.678;23.364;2022-09-09T00:12:46;15.38;;;9.52;;
6133;SDS011;3098;42.678;23.364;2022-09-09T00:15:22;20.55;;;10.13;;
6133;SDS011;3098;42.678;23.364;2022-09-09T00:17:53;15.25;;;9.70;;
6133;SDS011;3098;42.678;23.364;2022-09-09T00:20:28;15.57;;;9.88;;
6133;SDS011;3098;42.678;23.364;2022-09-09T00:23:03;16.55;;;10.15;;
6133;SDS011;3098;42.678;23.364;2022-09-09T00:25:40;14.30;;;10.10;;
6133;SDS011;3098;42.678;23.364;2022-09-09T00:28:13;17.27;;;10.30;;
6133;SDS011;3098;42.678;23.364;2022-09-09T00:30:46;16.63;;;10.68;;
6133;SDS011;3098;42.678;23.364;2022-09-09T00:33:15;20.58;;;10.95;;
6133;SDS011;3098;42.678;23.364;2022-09-09T00:35:45;16.45;;;10.10;;
6133;SDS011;3098;42.678;23.364;2022-09-09T00:38:16;17.83;;;10.70;;
6133;SDS011;3098;42.678;23.364;2022-09-09T00:40:49;17.48;;;10.00;;
6133;SDS011;3098;42.678;23.364;2022-09-09T00:43:26;15.45;;;10.13;;
6133;SDS011;3098;42.678;23.364;2022-09-09T00:46:04;17.25;;;10.38;;
6133;SDS011;3098;42.678;23.364;2022-09-09T00:48:50;15.75;;;10.57;;
6133;SDS011;3098;42.678;23.364;2022-09-09T00:51:25;18.65;;;10.43;;
6133;SDS011;3098;42.678;23.364;2022-09-09T00:54:19;14.35;;;10.02;;
6133;SDS011;3098;42.678;23.364;2022-09-09T00:56:57;15.18;;;9.65;;
6133;SDS011;3098;42.678;23.364;2022-09-09T00:59:35;14.18;;;9.82;;
6133;SDS011;3098;42.678;23.364;2022-09-09T01:02:13;14.43;;;9.68;;
6133;SDS011;3098;42.678;23.364;2022-09-09T01:04:48;15.60;;;9.35;;
6133;SDS011;3098;42.678;23.364;2022-09-09T01:07:16;16.35;;;8.68;;
6133;SDS011;3098;42.678;23.364;2022-09-09T01:09:50;17.33;;;8.32;;
6133;SDS011;3098;42.678;23.364;2022-09-09T01:12:24;13.60;;;9.10;;
6133;SDS011;3098;42.678;23.364;2022-09-09T01:14:57;15.40;;;8.43;;
6133;SDS011;3098;42.678;23.364;2022-09-09T01:17:31;12.48;;;7.78;;
6133;SDS011;3098;42.678;23.364;2022-09-09T01:20:04;12.38;;;8.23;;
6133;SDS011;3098;42.678;23.364;2022-09-09T01:22:40;15.52;;;8.45;;
6133;SDS011;3098;42.678;23.364;2022-09-09T01:25:28;13.07;;;8.73;;
6133;SDS011;3098;42.678;23.364;2022-09-09T01:28:00;12.75;;;8.98;;
6133;SDS011;3098;42.678;23.364;2022-09-09T01:30:31;13.50;;;8.38;;
6133;SDS011;3098;42.678;23.364;2022-09-09T01:32:59;11.55;;;7.47;;
6133;SDS011;3098;42.678;23.364;2022-09-09T01:35:31;14.18;;;8.93;;
6133;SDS011;3098;42.678;23.364;2022-09-09T01:38:04;15.10;;;8.82;;
6133;SDS011;3098;42.678;23.364;2022-09-09T01:40:32;15.30;;;8.40;;
6133;SDS011;3098;42.678;23.364;2022-09-09T01:43:01;15.80;;;8.00;;
6133;SDS011;3098;42.678;23.364;2022-09-09T01:45:29;14.73;;;8.10;;
6133;SDS011;3098;42.678;23.364;2022-09-09T01:47:57;13.63;;;8.20;;
6133;SDS011;3098;42.678;23.364;2022-09-09T01:50:28;13.15;;;8.80;;
6133;SDS011;3098;42.678;23.364;2022-09-09T01:52:57;13.25;;;8.20;;
6133;SDS011;3098;42.678;23.364;2022-09-09T01:55:28;13.85;;;8.63;;
6133;SDS011;3098;42.678;23.364;2022-09-09T01:58:03;15.18;;;8.73;;
6133;SDS011;3098;42.678;23.364;2022-09-09T02:00:43;13.63;;;8.65;;
6133;SDS011;3098;42.678;23.364;2022-09-09T02:03:17;24.13;;;12.57;;
6133;SDS011;3098;42.678;23.364;2022-09-09T02:05:52;12.73;;;8.52;;
6133;SDS011;3098;42.678;23.364;2022-09-09T02:08:27;11.45;;;8.52;;
6133;SDS011;3098;42.678;23.364;2022-09-09T02:11:01;11.32;;;8.55;;
6133;SDS011;3098;42.678;23.364;2022-09-09T02:13:35;11.85;;;8.10;;
6133;SDS011;3098;42.678;23.364;2022-09-09T02:16:06;12.82;;;8.35;;
6133;SDS011;3098;42.678;23.364;2022-09-09T02:18:35;14.82;;;8.80;;
6133;SDS011;3098;42.678;23.364;2022-09-09T02:21:05;12.43;;;8.15;;
6133;SDS011;3098;42.678;23.364;2022-09-09T02:23:34;13.65;;;9.07;;
6133;SDS011;3098;42.678;23.364;2022-09-09T02:26:02;15.93;;;8.85;;
6133;SDS011;3098;42.678;23.364;2022-09-09T02:28:30;13.48;;;8.65;;
6133;SDS011;3098;42.678;23.364;2022-09-09T02:31:01;12.80;;;8.15;;
6133;SDS011;3098;42.678;23.364;2022-09-09T02:33:30;12.63;;;8.20;;
6133;SDS011;3098;42.678;23.364;2022-09-09T02:36:02;14.52;;;9.02;;
6133;SDS011;3098;42.678;23.364;2022-09-09T02:38:33;11.73;;;8.65;;
6133;SDS011;3098;42.678;23.364;2022-09-09T02:41:04;13.82;;;8.23;;
6133;SDS011;3098;42.678;23.364;2022-09-09T02:43:32;14.10;;;8.50;;
6133;SDS011;3098;42.678;23.364;2022-09-09T02:46:05;14.45;;;8.95;;
6133;SDS011;3098;42.678;23.364;2022-09-09T02:48:43;16.65;;;9.45;;
6133;SDS011;3098;42.678;23.364;2022-09-09T02:51:22;13.38;;;8.15;;
6133;SDS011;3098;42.678;23.364;2022-09-09T02:53:59;14.85;;;8.75;;
6133;SDS011;3098;42.678;23.364;2022-09-09T02:56:36;13.63;;;9.02;;
6133;SDS011;3098;42.678;23.364;2022-09-09T02:59:08;12.57;;;8.63;;
6133;SDS011;3098;42.678;23.364;2022-09-09T03:01:38;12.00;;;8.65;;
6133;SDS011;3098;42.678;23.364;2022-09-09T03:04:05;14.75;;;9.23;;
6133;SDS011;3098;42.678;23.364;2022-09-09T03:06:32;12.65;;;8.90;;
6133;SDS011;3098;42.678;23.364;2022-09-09T03:09:00;13.15;;;9.63;;
6133;SDS011;3098;42.678;23.364;2022-09-09T03:11:28;19.23;;;9.98;;
6133;SDS011;3098;42.678;23.364;2022-09-09T03:13:55;15.10;;;9.85;;
6133;SDS011;3098;42.678;23.364;2022-09-09T03:16:22;15.57;;;10.20;;
6133;SDS011;3098;42.678;23.364;2022-09-09T03:18:50;16.80;;;11.10;;
6133;SDS011;3098;42.678;23.364;2022-09-09T03:21:18;17.33;;;10.73;;
6133;SDS011;3098;42.678;23.364;2022-09-09T03:23:45;21.38;;;10.73;;
6133;SDS011;3098;42.678;23.364;2022-09-09T03:26:12;15.50;;;11.20;;
6133;SDS011;3098;42.678;23.364;2022-09-09T03:28:40;15.88;;;11.05;;
6133;SDS011;3098;42.678;23.364;2022-09-09T03:31:08;15.70;;;10.90;;
6133;SDS011;3098;42.678;23.364;2022-09-09T03:33:36;18.50;;;11.75;;
6133;SDS011;3098;42.678;23.364;2022-09-09T03:36:05;19.70;;;11.23;;
6133;SDS011;3098;42.678;23.364;2022-09-09T03:38:33;14.95;;;10.35;;
6133;SDS011;3098;42.678;23.364;2022-09-09T03:41:00;15.63;;;11.10;;
6133;SDS011;3098;42.678;23.364;2022-09-09T03:43:27;22.85;;;11.85;;
6133;SDS011;3098;42.678;23.364;2022-09-09T03:45:55;34.67;;;21.25;;
6133;SDS011;3098;42.678;23.364;2022-09-09T03:48:23;20.70;;;11.55;;
6133;SDS011;3098;42.678;23.364;2022-09-09T03:50:53;21.52;;;14.25;;
6133;SDS011;3098;42.678;23.364;2022-09-09T03:53:24;24.10;;;13.77;;
6133;SDS011;3098;42.678;23.364;2022-09-09T03:55:52;22.73;;;12.07;;
6133;SDS011;3098;42.678;23.364;2022-09-09T03:58:21;16.15;;;11.40;;
6133;SDS011;3098;42.678;23.364;2022-09-09T04:00:55;19.58;;;12.30;;
6133;SDS011;3098;42.678;23.364;2022-09-09T04:03:23;16.05;;;11.25;;
6133;SDS011;3098;42.678;23.364;2022-09-09T04:05:51;25.30;;;11.55;;
6133;SDS011;3098;42.678;23.364;2022-09-09T04:08:18;16.63;;;9.75;;
6133;SDS011;3098;42.678;23.364;2022-09-09T04:10:48;18.60;;;10.95;;
6133;SDS011;3098;42.678;23.364;2022-09-09T04:13:16;15.90;;;10.50;;
6133;SDS011;3098;42.678;23.364;2022-09-09T04:15:48;18.15;;;11.35;;
6133;SDS011;3098;42.678;23.364;2022-09-09T04:18:17;16.48;;;10.30;;
6133;SDS011;3098;42.678;23.364;2022-09-09T04:20:46;17.10;;;10.70;;
6133;SDS011;3098;42.678;23.364;2022-09-09T04:23:13;16.63;;;10.52;;
6133;SDS011;3098;42.678;23.364;2022-09-09T04:25:43;16.75;;;10.98;;
6133;SDS011;3098;42.678;23.364;2022-09-09T04:28:13;22.55;;;11.15;;
6133;SDS011;3098;42.678;23.364;2022-09-09T04:30:41;15.40;;;11.27;;
6133;SDS011;3098;42.678;23.364;2022-09-09T04:33:08;17.23;;;11.70;;
6133;SDS011;3098;42.678;23.364;2022-09-09T04:35:36;18.55;;;11.13;;
6133;SDS011;3098;42.678;23.364;2022-09-09T04:38:04;17.23;;;10.60;;
6133;SDS011;3098;42.678;23.364;2022-09-09T04:40:32;20.50;;;11.40;;
6133;SDS011;3098;42.678;23.364;2022-09-09T04:43:00;15.18;;;10.40;;
6133;SDS011;3098;42.678;23.364;2022-09-09T04:45:29;16.42;;;11.65;;
6133;SDS011;3098;42.678;23.364;2022-09-09T04:47:57;17.73;;;11.40;;
6133;SDS011;3098;42.678;23.364;2022-09-09T04:50:26;17.23;;;11.60;;
6133;SDS011;3098;42.678;23.364;2022-09-09T04:52:53;17.25;;;10.45;;
6133;SDS011;3098;42.678;23.364;2022-09-09T04:55:21;18.17;;;12.15;;
6133;SDS011;3098;42.678;23.364;2022-09-09T04:57:48;16.70;;;11.10;;
6133;SDS011;3098;42.678;23.364;2022-09-09T05:00:15;17.92;;;11.15;;
6133;SDS011;3098;42.678;23.364;2022-09-09T05:02:45;20.58;;;11.60;;
6133;SDS011;3098;42.678;23.364;2022-09-09T05:05:12;15.88;;;11.02;;
6133;SDS011;3098;42.678;23.364;2022-09-09T05:07:39;17.90;;;11.30;;
6133;SDS011;3098;42.678;23.364;2022-09-09T05:10:07;17.85;;;11.85;;
6133;SDS011;3098;42.678;23.364;2022-09-09T05:12:35;20.58;;;11.02;;
6133;SDS011;3098;42.678;23.364;2022-09-09T05:15:03;20.98;;;11.25;;
6133;SDS011;3098;42.678;23.364;2022-09-09T05:17:30;29.48;;;12.77;;
6133;SDS011;3098;42.678;23.364;2022-09-09T05:19:59;22.42;;;11.80;;
6133;SDS011;3098;42.678;23.364;2022-09-09T05:22:28;22.33;;;12.85;;
6133;SDS011;3098;42.678;23.364;2022-09-09T05:24:55;17.77;;;11.15;;
6133;SDS011;3098;42.678;23.364;2022-09-09T05:27:23;19.52;;;11.32;;
6133;SDS011;3098;42.678;23.364;2022-09-09T05:29:50;17.65;;;11.23;;
6133;SDS011;3098;42.678;23.364;2022-09-09T05:32:17;18.60;;;11.27;;
6133;SDS011;3098;42.678;23.364;2022-09-09T05:34:45;16.33;;;11.82;;
6133;SDS011;3098;42.678;23.364;2022-09-09T05:37:13;28.80;;;10.52;;
6133;SDS011;3098;42.678;23.364;2022-09-09T05:39:41;20.80;;;9.82;;
6133;SDS011;3098;42.678;23.364;2022-09-09T05:42:08;14.60;;;9.43;;
6133;SDS011;3098;42.678;23.364;2022-09-09T05:44:35;13.05;;;9.38;;
6133;SDS011;3098;42.678;23.364;2022-09-09T05:47:02;16.23;;;9.13;;
6133;SDS011;3098;42.678;23.364;2022-09-09T05:49:30;17.10;;;9.30;;
6133;SDS011;3098;42.678;23.364;2022-09-09T05:51:57;17.42;;;8.63;;
6133;SDS011;3098;42.678;23.364;2022-09-09T05:54:25;10.77;;;7.55;;
6133;SDS011;3098;42.678;23.364;2022-09-09T05:56:52;15.82;;;8.45;;
6133;SDS011;3098;42.678;23.364;2022-09-09T05:59:20;10.65;;;8.35;;
6133;SDS011;3098;42.678;23.364;2022-09-09T06:01:48;13.40;;;7.18;;
6133;SDS011;3098;42.678;23.364;2022-09-09T06:04:15;13.77;;;7.60;;
6133;SDS011;3098;42.678;23.364;2022-09-09T06:06:43;11.07;;;7.38;;
6133;SDS011;3098;42.678;23.364;2022-09-09T06:09:10;10.05;;;5.97;;
6133;SDS011;3098;42.678;23.364;2022-09-09T06:11:38;11.07;;;6.97;;
6133;SDS011;3098;42.678;23.364;2022-09-09T06:14:06;10.75;;;6.25;;
6133;SDS011;3098;42.678;23.364;2022-09-09T06:16:34;10.73;;;6.82;;
6133;SDS011;3098;42.678;23.364;2022-09-09T06:19:02;11.82;;;7.20;;
6133;SDS011;3098;42.678;23.364;2022-09-09T06:21:31;10.75;;;7.70;;
6133;SDS011;3098;42.678;23.364;2022-09-09T06:24:00;14.32;;;8.00;;
6133;SDS011;3098;42.678;23.364;2022-09-09T06:26:28;10.70;;;5.97;;
6133;SDS011;3098;42.678;23.364;2022-09-09T06:28:58;9.93;;;7.43;;
6133;SDS011;3098;42.678;23.364;2022-09-09T06:31:28;14.38;;;6.60;;
6133;SDS011;3098;42.678;23.364;2022-09-09T06:33:59;9.95;;;5.95;;
6133;SDS011;3098;42.678;23.364;2022-09-09T06:36:26;10.23;;;6.55;;
6133;SDS011;3098;42.678;23.364;2022-09-09T06:38:54;9.07;;;5.38;;
6133;SDS011;3098;42.678;23.364;2022-09-09T06:41:22;6.65;;;5.28;;
6133;SDS011;3098;42.678;23.364;2022-09-09T06:43:51;7.35;;;5.53;;
6133;SDS011;3098;42.678;23.364;2022-09-09T06:46:22;8.15;;;5.30;;
6133;SDS011;3098;42.678;23.364;2022-09-09T06:48:52;9.18;;;6.13;;
6133;SDS011;3098;42.678;23.364;2022-09-09T06:51:21;6.97;;;5.07;;
6133;SDS011;3098;42.678;23.364;2022-09-09T06:53:50;8.27;;;5.00;;
6133;SDS011;3098;42.678;23.364;2022-09-09T06:56:20;6.85;;;5.07;;
6133;SDS011;3098;42.678;23.364;2022-09-09T06:58:49;5.80;;;4.57;;
6133;SDS011;3098;42.678;23.364;2022-09-09T07:01:18;7.97;;;4.90;;
6133;SDS011;3098;42.678;23.364;2022-09-09T07:03:48;14.52;;;5.60;;
6133;SDS011;3098;42.678;23.364;2022-09-09T07:06:16;7.47;;;5.10;;
6133;SDS011;3098;42.678;23.364;2022-09-09T07:08:48;7.07;;;4.68;;
6133;SDS011;3098;42.678;23.364;2022-09-09T07:11:17;9.63;;;5.03;;
6133;SDS011;3098;42.678;23.364;2022-09-09T07:13:45;6.57;;;4.80;;
6133;SDS011;3098;42.678;23.364;2022-09-09T07:16:13;5.72;;;4.90;;
6133;SDS011;3098;42.678;23.364;2022-09-09T07:18:42;9.50;;;5.32;;
6133;SDS011;3098;42.678;23.364;2022-09-09T07:21:11;12.82;;;5.13;;
6133;SDS011;3098;42.678;23.364;2022-09-09T07:23:39;6.20;;;5.10;;
6133;SDS011;3098;42.678;23.364;2022-09-09T07:26:08;7.13;;;4.97;;
6133;SDS011;3098;42.678;23.364;2022-09-09T07:28:35;6.95;;;5.70;;
6133;SDS011;3098;42.678;23.364;2022-09-09T07:31:03;9.25;;;5.38;;
6133;SDS011;3098;42.678;23.364;2022-09-09T07:33:30;8.52;;;4.80;;
6133;SDS011;3098;42.678;23.364;2022-09-09T07:36:03;12.48;;;5.50;;
6133;SDS011;3098;42.678;23.364;2022-09-09T07:38:37;9.00;;;5.45;;
6133;SDS011;3098;42.678;23.364;2022-09-09T07:41:05;8.75;;;5.20;;
6133;SDS011;3098;42.678;23.364;2022-09-09T07:43:36;7.68;;;4.97;;
6133;SDS011;3098;42.678;23.364;2022-09-09T07:46:04;8.25;;;5.28;;
6133;SDS011;3098;42.678;23.364;2022-09-09T07:48:31;12.63;;;5.22;;
6133;SDS011;3098;42.678;23.364;2022-09-09T07:51:06;7.43;;;5.00;;
6133;SDS011;3098;42.678;23.364;2022-09-09T07:53:37;6.53;;;5.25;;
6133;SDS011;3098;42.678;23.364;2022-09-09T07:56:05;7.28;;;5.70;;
6133;SDS011;3098;42.678;23.364;2022-09-09T07:58:34;9.27;;;5.60;;
6133;SDS011;3098;42.678;23.364;2022-09-09T08:01:05;10.35;;;5.88;;
6133;SDS011;3098;42.678;23.364;2022-09-09T08:03:34;9.15;;;6.20;;
6133;SDS011;3098;42.678;23.364;2022-09-09T08:06:01;10.75;;;6.55;;
6133;SDS011;3098;42.678;23.364;2022-09-09T08:08:30;5.57;;;4.97;;
6133;SDS011;3098;42.678;23.364;2022-09-09T08:11:06;9.70;;;5.25;;
6133;SDS011;3098;42.678;23.364;2022-09-09T08:13:35;10.65;;;5.80;;
6133;SDS011;3098;42.678;23.364;2022-09-09T08:16:03;9.27;;;5.85;;
6133;SDS011;3098;42.678;23.364;2022-09-09T08:18:34;8.18;;;5.90;;
6133;SDS011;3098;42.678;23.364;2022-09-09T08:21:08;6.63;;;5.22;;
6133;SDS011;3098;42.678;23.364;2022-09-09T08:23:38;6.70;;;4.63;;
6133;SDS011;3098;42.678;23.364;2022-09-09T08:26:10;6.25;;;5.53;;
6133;SDS011;3098;42.678;23.364;2022-09-09T08:28:38;5.68;;;5.07;;
6133;SDS011;3098;42.678;23.364;2022-09-09T08:31:10;7.88;;;5.25;;
6133;SDS011;3098;42.678;23.364;2022-09-09T08:33:38;8.07;;;5.60;;
6133;SDS011;3098;42.678;23.364;2022-09-09T08:36:06;6.35;;;5.18;;
6133;SDS011;3098;42.678;23.364;2022-09-09T08:38:36;7.13;;;5.35;;
6133;SDS011;3098;42.678;23.364;2022-09-09T08:44:05;9.73;;;5.68;;
6133;SDS011;3098;42.678;23.364;2022-09-09T08:46:39;7.15;;;5.10;;
6133;SDS011;3098;42.678;23.364;2022-09-09T08:49:19;13.63;;;5.70;;
6133;SDS011;3098;42.678;23.364;2022-09-09T08:52:06;8.50;;;5.70;;
6133;SDS011;3098;42.678;23.364;2022-09-09T08:54:41;9.68;;;5.88;;
6133;SDS011;3098;42.678;23.364;2022-09-09T08:57:11;8.63;;;5.90;;
6133;SDS011;3098;42.678;23.364;2022-09-09T08:59:45;6.03;;;5.10;;
6133;SDS011;3098;42.678;23.364;2022-09-09T09:02:14;12.40;;;5.65;;
6133;SDS011;3098;42.678;23.364;2022-09-09T09:04:48;11.23;;;5.50;;
6133;SDS011;3098;42.678;23.364;2022-09-09T09:07:28;7.38;;;5.07;;
6133;SDS011;3098;42.678;23.364;2022-09-09T09:10:08;6.78;;;5.03;;
6133;SDS011;3098;42.678;23.364;2022-09-09T09:12:43;8.63;;;5.55;;
6133;SDS011;3098;42.678;23.364;2022-09-09T09:15:14;10.10;;;5.88;;
6133;SDS011;3098;42.678;23.364;2022-09-09T09:17:46;8.05;;;5.82;;
6133;SDS011;3098;42.678;23.364;2022-09-09T09:20:14;12.38;;;5.63;;
6133;SDS011;3098;42.678;23.364;2022-09-09T09:22:45;9.55;;;5.72;;
6133;SDS011;3098;42.678;23.364;2022-09-09T09:25:17;6.45;;;5.78;;
6133;SDS011;3098;42.678;23.364;2022-09-09T09:27:49;8.93;;;6.28;;
6133;SDS011;3098;42.678;23.364;2022-09-09T09:30:26;9.30;;;5.63;;
6133;SDS011;3098;42.678;23.364;2022-09-09T09:32:59;10.50;;;5.82;;
6133;SDS011;3098;42.678;23.364;2022-09-09T09:35:29;8.60;;;6.30;;
6133;SDS011;3098;42.678;23.364;2022-09-09T09:37:56;15.25;;;5.40;;
6133;SDS011;3098;42.678;23.364;2022-09-09T09:40:26;8.50;;;5.65;;
6133;SDS011;3098;42.678;23.364;2022-09-09T09:42:55;8.43;;;6.00;;
6133;SDS011;3098;42.678;23.364;2022-09-09T09:45:28;12.52;;;5.97;;
6133;SDS011;3098;42.678;23.364;2022-09-09T09:47:59;7.63;;;5.40;;
6133;SDS011;3098;42.678;23.364;2022-09-09T09:50:28;9.05;;;5.57;;
6133;SDS011;3098;42.678;23.364;2022-09-09T09:52:58;7.32;;;5.63;;
6133;SDS011;3098;42.678;23.364;2022-09-09T09:55:27;12.32;;;6.32;;
6133;SDS011;3098;42.678;23.364;2022-09-09T09:58:02;9.82;;;6.07;;
6133;SDS011;3098;42.678;23.364;2022-09-09T10:00:30;8.55;;;5.85;;
6133;SDS011;3098;42.678;23.364;2022-09-09T10:02:59;7.80;;;5.60;;
6133;SDS011;3098;42.678;23.364;2022-09-09T10:05:27;10.40;;;6.20;;
6133;SDS011;3098;42.678;23.364;2022-09-09T10:08:02;19.27;;;8.13;;
6133;SDS011;3098;42.678;23.364;2022-09-09T10:10:37;18.02;;;6.18;;
6133;SDS011;3098;42.678;23.364;2022-09-09T10:13:14;10.45;;;6.00;;
6133;SDS011;3098;42.678;23.364;2022-09-09T10:15:48;9.32;;;5.90;;
6133;SDS011;3098;42.678;23.364;2022-09-09T10:18:40;9.02;;;5.70;;
6133;SDS011;3098;42.678;23.364;2022-09-09T10:21:18;9.82;;;5.85;;
6133;SDS011;3098;42.678;23.364;2022-09-09T10:24:09;10.43;;;6.43;;
6133;SDS011;3098;42.678;23.364;2022-09-09T10:27:11;8.35;;;6.18;;
6133;SDS011;3098;42.678;23.364;2022-09-09T10:29:57;11.07;;;6.20;;
6133;SDS011;3098;42.678;23.364;2022-09-09T10:32:37;9.77;;;6.13;;
6133;SDS011;3098;42.678;23.364;2022-09-09T10:35:12;14.02;;;6.55;;
6133;SDS011;3098;42.678;23.364;2022-09-09T10:40:43;12.25;;;6.38;;
6133;SDS011;3098;42.678;23.364;2022-09-09T10:43:28;10.43;;;6.65;;
6133;SDS011;3098;42.678;23.364;2022-09-09T10:46:09;7.78;;;5.80;;
6133;SDS011;3098;42.678;23.364;2022-09-09T10:48:49;12.57;;;6.25;;
6133;SDS011;3098;42.678;23.364;2022-09-09T10:51:31;9.93;;;6.25;;
6133;SDS011;3098;42.678;23.364;2022-09-09T10:56:55;9.55;;;6.68;;
6133;SDS011;3098;42.678;23.364;2022-09-09T10:59:26;9.32;;;6.57;;
6133;SDS011;3098;42.678;23.364;2022-09-09T11:01:58;13.15;;;6.97;;
6133;SDS011;3098;42.678;23.364;2022-09-09T11:04:34;16.40;;;6.93;;
6133;SDS011;3098;42.678;23.364;2022-09-09T11:07:10;11.88;;;7.07;;
6133;SDS011;3098;42.678;23.364;2022-09-09T11:09:44;12.02;;;6.78;;
6133;SDS011;3098;42.678;23.364;2022-09-09T11:12:19;14.18;;;6.57;;
6133;SDS011;3098;42.678;23.364;2022-09-09T11:14:48;9.55;;;6.90;;
6133;SDS011;3098;42.678;23.364;2022-09-09T11:17:23;11.48;;;7.13;;
6133;SDS011;3098;42.678;23.364;2022-09-09T11:19:53;12.05;;;7.72;;
6133;SDS011;3098;42.678;23.364;2022-09-09T11:22:27;12.07;;;7.03;;
6133;SDS011;3098;42.678;23.364;2022-09-09T11:24:57;13.77;;;7.43;;
6133;SDS011;3098;42.678;23.364;2022-09-09T11:27:32;13.55;;;6.68;;
6133;SDS011;3098;42.678;23.364;2022-09-09T11:30:14;10.23;;;7.22;;
6133;SDS011;3098;42.678;23.364;2022-09-09T11:32:58;12.88;;;7.45;;
6133;SDS011;3098;42.678;23.364;2022-09-09T11:35:50;13.02;;;8.07;;
6133;SDS011;3098;42.678;23.364;2022-09-09T11:38:28;12.52;;;7.63;;
6133;SDS011;3098;42.678;23.364;2022-09-09T11:41:01;11.82;;;8.25;;
6133;SDS011;3098;42.678;23.364;2022-09-09T11:43:31;16.38;;;8.90;;
6133;SDS011;3098;42.678;23.364;2022-09-09T11:46:05;15.43;;;8.20;;
6133;SDS011;3098;42.678;23.364;2022-09-09T11:48:35;13.57;;;8.52;;
6133;SDS011;3098;42.678;23.364;2022-09-09T11:51:05;14.40;;;7.63;;
6133;SDS011;3098;42.678;23.364;2022-09-09T11:53:36;11.23;;;8.27;;
6133;SDS011;3098;42.678;23.364;2022-09-09T11:56:23;13.93;;;9.15;;
6133;SDS011;3098;42.678;23.364;2022-09-09T11:58:56;19.10;;;8.00;;
6133;SDS011;3098;42.678;23.364;2022-09-09T12:04:17;12.20;;;8.30;;
6133;SDS011;3098;42.678;23.364;2022-09-09T12:06:54;14.30;;;7.95;;
6133;SDS011;3098;42.678;23.364;2022-09-09T12:09:27;18.52;;;7.78;;
6133;SDS011;3098;42.678;23.364;2022-09-09T12:12:05;14.02;;;7.65;;
6133;SDS011;3098;42.678;23.364;2022-09-09T12:14:35;15.15;;;7.78;;
6133;SDS011;3098;42.678;23.364;2022-09-09T12:17:17;12.43;;;7.45;;
6133;SDS011;3098;42.678;23.364;2022-09-09T12:19:48;11.95;;;7.55;;
6133;SDS011;3098;42.678;23.364;2022-09-09T12:22:31;13.23;;;7.50;;
6133;SDS011;3098;42.678;23.364;2022-09-09T12:25:09;11.68;;;7.47;;
6133;SDS011;3098;42.678;23.364;2022-09-09T12:27:49;21.38;;;8.27;;
6133;SDS011;3098;42.678;23.364;2022-09-09T12:30:27;13.48;;;7.00;;
6133;SDS011;3098;42.678;23.364;2022-09-09T12:33:01;16.25;;;8.27;;
6133;SDS011;3098;42.678;23.364;2022-09-09T12:35:30;21.88;;;8.25;;
6133;SDS011;3098;42.678;23.364;2022-09-09T12:37:58;14.70;;;8.40;;
6133;SDS011;3098;42.678;23.364;2022-09-09T12:40:29;16.50;;;7.88;;
6133;SDS011;3098;42.678;23.364;2022-09-09T12:43:00;12.20;;;8.07;;
6133;SDS011;3098;42.678;23.364;2022-09-09T12:45:28;15.05;;;7.63;;
6133;SDS011;3098;42.678;23.364;2022-09-09T12:47:58;16.35;;;9.20;;
6133;SDS011;3098;42.678;23.364;2022-09-09T12:50:31;12.15;;;7.80;;
6133;SDS011;3098;42.678;23.364;2022-09-09T12:53:02;17.85;;;8.60;;
6133;SDS011;3098;42.678;23.364;2022-09-09T12:55:35;19.85;;;8.45;;
6133;SDS011;3098;42.678;23.364;2022-09-09T12:58:04;17.25;;;8.57;;
6133;SDS011;3098;42.678;23.364;2022-09-09T13:00:33;11.60;;;7.90;;
6133;SDS011;3098;42.678;23.364;2022-09-09T13:03:02;12.50;;;8.02;;
6133;SDS011;3098;42.678;23.364;2022-09-09T13:05:43;20.73;;;8.15;;
6133;SDS011;3098;42.678;23.364;2022-09-09T13:08:12;12.40;;;7.93;;
6133;SDS011;3098;42.678;23.364;2022-09-09T13:10:41;17.55;;;7.93;;
6133;SDS011;3098;42.678;23.364;2022-09-09T13:13:13;14.38;;;8.27;;
6133;SDS011;3098;42.678;23.364;2022-09-09T13:15:47;10.80;;;8.43;;
6133;SDS011;3098;42.678;23.364;2022-09-09T13:18:16;12.90;;;8.85;;
6133;SDS011;3098;42.678;23.364;2022-09-09T13:20:49;11.45;;;8.50;;
6133;SDS011;3098;42.678;23.364;2022-09-09T13:23:17;16.80;;;8.63;;
6133;SDS011;3098;42.678;23.364;2022-09-09T13:25:52;13.80;;;8.35;;
6133;SDS011;3098;42.678;23.364;2022-09-09T13:28:22;12.40;;;8.68;;
6133;SDS011;3098;42.678;23.364;2022-09-09T13:30:57;20.77;;;8.82;;
6133;SDS011;3098;42.678;23.364;2022-09-09T13:33:29;13.23;;;8.80;;
6133;SDS011;3098;42.678;23.364;2022-09-09T13:36:00;15.48;;;8.63;;
6133;SDS011;3098;42.678;23.364;2022-09-09T13:38:30;33.30;;;20.15;;
6133;SDS011;3098;42.678;23.364;2022-09-09T13:41:01;13.20;;;8.30;;
6133;SDS011;3098;42.678;23.364;2022-09-09T13:43:30;15.82;;;8.57;;
6133;SDS011;3098;42.678;23.364;2022-09-09T13:46:01;15.80;;;8.30;;
6133;SDS011;3098;42.678;23.364;2022-09-09T13:48:30;18.20;;;9.07;;
6133;SDS011;3098;42.678;23.364;2022-09-09T13:50:58;15.32;;;8.50;;
6133;SDS011;3098;42.678;23.364;2022-09-09T13:53:28;12.73;;;8.38;;
6133;SDS011;3098;42.678;23.364;2022-09-09T13:55:55;16.80;;;9.02;;
6133;SDS011;3098;42.678;23.364;2022-09-09T13:58:23;12.20;;;8.32;;
6133;SDS011;3098;42.678;23.364;2022-09-09T14:00:51;16.48;;;8.60;;
6133;SDS011;3098;42.678;23.364;2022-09-09T14:03:19;15.35;;;9.32;;
6133;SDS011;3098;42.678;23.364;2022-09-09T14:05:46;11.55;;;8.13;;
6133;SDS011;3098;42.678;23.364;2022-09-09T14:08:25;14.32;;;8.55;;
6133;SDS011;3098;42.678;23.364;2022-09-09T14:11:01;11.77;;;8.20;;
6133;SDS011;3098;42.678;23.364;2022-09-09T14:13:29;17.20;;;8.70;;
6133;SDS011;3098;42.678;23.364;2022-09-09T14:15:56;11.20;;;8.25;;
6133;SDS011;3098;42.678;23.364;2022-09-09T14:18:23;10.50;;;7.60;;
6133;SDS011;3098;42.678;23.364;2022-09-09T14:20:51;12.65;;;7.97;;
6133;SDS011;3098;42.678;23.364;2022-09-09T14:23:18;13.73;;;7.63;;
6133;SDS011;3098;42.678;23.364;2022-09-09T14:25:48;13.88;;;8.52;;
6133;SDS011;3098;42.678;23.364;2022-09-09T14:28:17;12.90;;;7.50;;
6133;SDS011;3098;42.678;23.364;2022-09-09T14:30:44;17.77;;;7.82;;
6133;SDS011;3098;42.678;23.364;2022-09-09T14:33:12;18.80;;;8.05;;
6133;SDS011;3098;42.678;23.364;2022-09-09T14:35:41;22.15;;;8.18;;
6133;SDS011;3098;42.678;23.364;2022-09-09T14:38:09;16.10;;;7.57;;
6133;SDS011;3098;42.678;23.364;2022-09-09T14:40:36;13.23;;;7.95;;
6133;SDS011;3098;42.678;23.364;2022-09-09T14:43:09;12.88;;;7.28;;
6133;SDS011;3098;42.678;23.364;2022-09-09T14:45:37;15.82;;;8.38;;
6133;SDS011;3098;42.678;23.364;2022-09-09T14:48:04;15.27;;;8.20;;
6133;SDS011;3098;42.678;23.364;2022-09-09T14:50:32;11.70;;;7.10;;
6133;SDS011;3098;42.678;23.364;2022-09-09T14:53:00;15.95;;;7.43;;
6133;SDS011;3098;42.678;23.364;2022-09-09T14:55:27;15.88;;;7.63;;
6133;SDS011;3098;42.678;23.364;2022-09-09T14:57:54;14.55;;;7.32;;
6133;SDS011;3098;42.678;23.364;2022-09-09T15:00:23;13.50;;;7.90;;
6133;SDS011;3098;42.678;23.364;2022-09-09T15:02:51;14.63;;;7.93;;
6133;SDS011;3098;42.678;23.364;2022-09-09T15:05:19;12.52;;;8.13;;
6133;SDS011;3098;42.678;23.364;2022-09-09T15:07:46;16.23;;;8.52;;
6133;SDS011;3098;42.678;23.364;2022-09-09T15:10:14;15.95;;;8.82;;
6133;SDS011;3098;42.678;23.364;2022-09-09T15:12:42;16.48;;;8.25;;
6133;SDS011;3098;42.678;23.364;2022-09-09T15:15:10;14.63;;;8.25;;
6133;SDS011;3098;42.678;23.364;2022-09-09T15:17:39;17.15;;;7.90;;
6133;SDS011;3098;42.678;23.364;2022-09-09T15:20:08;19.13;;;7.68;;
6133;SDS011;3098;42.678;23.364;2022-09-09T15:22:36;10.05;;;7.28;;
6133;SDS011;3098;42.678;23.364;2022-09-09T15:25:04;18.58;;;7.85;;